Time;durP1;ratioP1;P1;durP2;ratioP2;P2;SDS_P1;SDS_P2;PMS_P1;PMS_P2;Temp;Humidity;BMP_temperature;BMP_pressure;BME280_temperature;BME280_humidity;BME280_pressure;Samples;Min_cycle;Max_cycle;Signal;HPM_P1;HPM_P2
2022/05/06 00:00:12;;;;;;;5.57;4.18;;;15.70;99.90;;;;;;5031543;28;20026;-87
2022/05/06 00:02:38;;;;;;;5.60;4.35;;;15.70;99.90;;;;;;5046667;28;20069;-86
2022/05/06 00:05:05;;;;;;;7.95;4.63;;;15.70;99.90;;;;;;5045771;28;20028;-87
2022/05/06 00:07:31;;;;;;;5.90;4.57;;;15.70;99.90;;;;;;5047191;28;20033;-88
2022/05/06 00:09:57;;;;;;;7.18;4.03;;;15.60;99.90;;;;;;5046108;28;20031;-88
2022/05/06 00:12:23;;;;;;;8.10;4.72;;;15.60;99.90;;;;;;5044464;28;20045;-89
2022/05/06 00:14:49;;;;;;;9.75;4.65;;;15.50;99.90;;;;;;5045007;28;20029;-87
2022/05/06 00:17:15;;;;;;;10.68;4.70;;;15.50;99.90;;;;;;5027094;28;20033;-87
2022/05/06 00:19:45;;;;;;;8.95;5.68;;;15.50;99.90;;;;;;5049745;28;20014;-85
2022/05/06 00:22:11;;;;;;;9.18;5.43;;;15.50;99.90;;;;;;5046156;28;20044;-87
2022/05/06 00:24:37;;;;;;;5.80;4.75;;;15.50;99.90;;;;;;5026764;28;20022;-87
2022/05/06 00:27:04;;;;;;;5.70;4.55;;;15.40;99.90;;;;;;5047855;28;20029;-86
2022/05/06 00:29:30;;;;;;;6.38;4.43;;;15.40;99.90;;;;;;5037510;28;20021;-88
2022/05/06 00:31:56;;;;;;;13.20;4.82;;;15.30;99.90;;;;;;5010634;28;20071;-85
2022/05/06 00:34:22;;;;;;;6.18;4.85;;;15.30;99.90;;;;;;5026179;28;20033;-88
2022/05/06 00:36:48;;;;;;;6.30;4.38;;;15.30;99.90;;;;;;5051682;28;20164;-84
2022/05/06 00:39:14;;;;;;;6.68;4.75;;;15.20;99.90;;;;;;5041206;28;20009;-85
2022/05/06 00:41:39;;;;;;;7.30;4.70;;;15.20;99.90;;;;;;5058301;28;20105;-84
2022/05/06 00:44:07;;;;;;;8.48;4.80;;;15.20;99.90;;;;;;5058557;28;20037;-84
2022/05/06 00:46:35;;;;;;;6.88;4.45;;;15.20;99.90;;;;;;5042131;28;20117;-85
2022/05/06 00:49:01;;;;;;;7.85;4.50;;;15.20;99.90;;;;;;5058854;28;20072;-85
2022/05/06 00:51:28;;;;;;;9.43;4.78;;;15.10;99.90;;;;;;5058787;28;20021;-87
2022/05/06 00:53:56;;;;;;;9.38;5.40;;;15.10;99.90;;;;;;5041754;28;20048;-85
2022/05/06 00:56:25;;;;;;;7.75;5.00;;;15.10;99.90;;;;;;5025339;28;20033;-86
2022/05/06 00:58:52;;;;;;;9.70;5.57;;;15.10;99.90;;;;;;5057733;28;20029;-85
2022/05/06 01:01:19;;;;;;;10.80;5.50;;;15.10;99.90;;;;;;5016226;28;20026;-87
2022/05/06 01:03:45;;;;;;;7.15;4.75;;;15.10;99.90;;;;;;5048786;28;20029;-87
2022/05/06 01:06:13;;;;;;;6.45;5.03;;;15.10;99.90;;;;;;5049217;28;20059;-86
2022/05/06 01:08:41;;;;;;;7.30;5.20;;;15.10;99.90;;;;;;5035081;28;20152;-86
2022/05/06 01:11:11;;;;;;;6.22;5.13;;;15.10;99.90;;;;;;5048837;28;20409;-88
2022/05/06 01:13:40;;;;;;;7.32;5.00;;;15.10;99.90;;;;;;5046129;28;20041;-88
2022/05/06 01:16:06;;;;;;;8.32;5.38;;;15.10;99.90;;;;;;5026230;28;20508;-88
2022/05/06 01:18:40;;;;;;;8.77;5.28;;;15.10;99.90;;;;;;5051255;28;20014;-86
2022/05/06 01:21:08;;;;;;;11.95;5.75;;;15.00;99.90;;;;;;5040850;28;20113;-87
2022/05/06 01:23:35;;;;;;;8.05;5.60;;;15.00;99.90;;;;;;5040793;28;20041;-86
2022/05/06 01:26:01;;;;;;;8.57;5.88;;;15.00;99.90;;;;;;5040106;28;20030;-86
2022/05/06 01:28:29;;;;;;;7.15;5.53;;;14.90;99.90;;;;;;5034016;28;20060;-86
2022/05/06 01:31:01;;;;;;;8.35;6.22;;;14.90;99.90;;;;;;5042875;28;20026;-86
2022/05/06 01:33:29;;;;;;;7.47;5.63;;;14.80;99.90;;;;;;5028267;28;20090;-86
2022/05/06 01:36:03;;;;;;;7.85;5.82;;;14.80;99.90;;;;;;5045572;28;20029;-85
2022/05/06 01:38:49;;;;;;;8.35;5.93;;;14.80;99.90;;;;;;5028485;28;20440;-85
2022/05/06 01:41:21;;;;;;;8.52;6.35;;;14.80;99.90;;;;;;5040513;28;20056;-86
2022/05/06 01:44:09;;;;;;;9.32;6.53;;;14.70;99.90;;;;;;5058013;28;20026;-84
2022/05/06 01:46:37;;;;;;;9.30;6.43;;;14.70;99.90;;;;;;5040998;28;20023;-86
2022/05/06 01:49:06;;;;;;;11.65;6.15;;;14.70;99.90;;;;;;5040810;28;20018;-85
2022/05/06 01:51:35;;;;;;;9.80;6.20;;;14.70;99.90;;;;;;5023223;28;20013;-85
2022/05/06 01:54:07;;;;;;;11.77;6.75;;;14.70;99.90;;;;;;5032766;28;20096;-85
2022/05/06 01:56:34;;;;;;;9.85;6.88;;;14.70;99.90;;;;;;5044721;22;20037;-85
2022/05/06 01:59:01;;;;;;;13.23;6.95;;;14.70;99.90;;;;;;5034918;28;20044;-85
2022/05/06 02:01:29;;;;;;;9.75;6.72;;;14.60;99.90;;;;;;5035140;28;20037;-85
2022/05/06 02:06:39;;;;;;;11.85;7.45;;;14.70;99.90;;;;;;5033857;28;20034;-85
2022/05/06 02:09:11;;;;;;;15.18;7.78;;;14.60;99.90;;;;;;5051527;28;20017;-86
2022/05/06 02:11:49;;;;;;;13.35;7.93;;;14.60;99.90;;;;;;5035374;28;20033;-84
2022/05/06 02:14:16;;;;;;;12.55;7.45;;;14.60;99.90;;;;;;5035582;28;20024;-88
2022/05/06 02:17:14;;;;;;;12.50;7.25;;;14.50;99.90;;;;;;5028696;28;20052;-86
2022/05/06 02:20:04;;;;;;;11.27;7.40;;;14.50;99.90;;;;;;5043678;28;20037;-86
2022/05/06 02:22:29;;;;;;;11.52;7.88;;;14.50;99.90;;;;;;5054075;28;20033;-86
2022/05/06 02:25:09;;;;;;;14.88;8.25;;;14.50;99.90;;;;;;5033798;28;20032;-86
2022/05/06 02:27:52;;;;;;;11.88;7.38;;;14.40;99.90;;;;;;5024261;28;20034;-85
2022/05/06 02:33:15;;;;;;;11.32;8.23;;;14.40;99.90;;;;;;5034727;28;20045;-86
2022/05/06 02:35:54;;;;;;;;;;;14.40;99.90;;;;;;5036404;28;20059;-85
2022/05/06 02:38:27;;;;;;;13.45;8.75;;;14.40;99.90;;;;;;5034206;28;19996;-86
2022/05/06 02:40:55;;;;;;;12.82;8.57;;;14.40;99.90;;;;;;5031553;28;20030;-88
2022/05/06 02:43:23;;;;;;;14.50;9.02;;;14.40;99.90;;;;;;5014895;28;20052;-87
2022/05/06 02:45:52;;;;;;;12.98;9.00;;;14.40;99.90;;;;;;5032865;28;20062;-85
2022/05/06 02:48:19;;;;;;;11.90;8.73;;;14.30;99.90;;;;;;5033543;28;20083;-86
2022/05/06 02:50:47;;;;;;;12.50;8.88;;;14.30;99.90;;;;;;5032756;28;20036;-86
2022/05/06 02:53:13;;;;;;;12.48;8.80;;;14.30;99.90;;;;;;5035126;28;20051;-87
2022/05/06 02:55:39;;;;;;;13.27;9.05;;;14.30;99.90;;;;;;5017803;28;20037;-87
2022/05/06 02:58:07;;;;;;;15.13;9.38;;;14.20;99.90;;;;;;5031338;28;20025;-85
2022/05/06 03:00:33;;;;;;;18.02;9.18;;;14.30;99.90;;;;;;5029667;28;20033;-86
2022/05/06 03:03:02;;;;;;;15.60;10.57;;;14.30;99.90;;;;;;5031756;28;20018;-86
2022/05/06 03:05:32;;;;;;;14.70;10.27;;;14.30;99.90;;;;;;5035035;28;20029;-86
2022/05/06 03:07:59;;;;;;;15.25;9.63;;;14.20;99.90;;;;;;5026640;28;20025;-85
2022/05/06 03:10:28;;;;;;;17.80;10.07;;;14.30;99.90;;;;;;5044755;28;20013;-85
2022/05/06 03:12:58;;;;;;;16.83;9.75;;;14.30;99.90;;;;;;5044480;28;20044;-84
2022/05/06 03:15:26;;;;;;;15.23;10.00;;;14.30;99.90;;;;;;5044328;28;20044;-83
2022/05/06 03:18:07;;;;;;;18.38;10.43;;;14.20;99.90;;;;;;5044216;28;20043;-84
2022/05/06 03:20:33;;;;;;;18.60;10.57;;;14.20;99.90;;;;;;5061413;28;20036;-86
2022/05/06 03:22:59;;;;;;;18.75;11.07;;;14.20;99.90;;;;;;5061532;28;20010;-85
2022/05/06 03:25:25;;;;;;;15.88;11.70;;;14.20;99.90;;;;;;5061331;28;20013;-86
2022/05/06 03:28:02;;;;;;;14.80;10.15;;;14.10;99.90;;;;;;5060903;28;20022;-87
2022/05/06 03:30:40;;;;;;;14.57;10.07;;;14.10;99.90;;;;;;5059796;28;20018;-85
2022/05/06 03:33:18;;;;;;;14.48;9.63;;;14.00;99.90;;;;;;5037568;28;20025;-85
2022/05/06 03:35:46;;;;;;;14.77;9.90;;;14.00;99.90;;;;;;5020967;28;20052;-86
2022/05/06 03:38:13;;;;;;;13.30;9.43;;;14.10;99.90;;;;;;5036192;28;20108;-87
2022/05/06 03:40:44;;;;;;;13.80;9.55;;;14.00;99.90;;;;;;5035470;28;20044;-86
2022/05/06 03:43:10;;;;;;;19.60;9.90;;;14.00;99.90;;;;;;5038224;28;20524;-87
2022/05/06 03:45:39;;;;;;;17.30;9.00;;;14.00;99.90;;;;;;5038174;28;20010;-87
2022/05/06 03:48:07;;;;;;;16.08;9.38;;;14.00;99.90;;;;;;5022279;28;20014;-87
2022/05/06 03:53:38;;;;;;;14.75;9.48;;;14.00;99.90;;;;;;5018652;28;20519;-87
2022/05/06 03:56:05;;;;;;;12.63;9.20;;;14.00;99.90;;;;;;5056333;28;20033;-85
2022/05/06 03:58:36;;;;;;;13.65;9.63;;;14.00;99.90;;;;;;5038888;28;20021;-85
2022/05/06 04:01:07;;;;;;;14.80;10.55;;;14.10;99.90;;;;;;5021774;28;20048;-85
2022/05/06 04:03:33;;;;;;;24.17;16.25;;;14.10;99.90;;;;;;5055269;28;20025;-86
2022/05/06 04:05:59;;;;;;;13.77;9.43;;;14.10;99.90;;;;;;5037074;28;20048;-86
2022/05/06 04:08:25;;;;;;;13.75;9.68;;;14.10;99.90;;;;;;5036489;28;20036;-87
2022/05/06 04:10:52;;;;;;;12.13;8.75;;;14.10;99.90;;;;;;5035755;28;20488;-87
2022/05/06 04:13:19;;;;;;;15.43;10.32;;;14.10;99.90;;;;;;5035856;28;20083;-86
2022/05/06 04:15:47;;;;;;;15.15;9.80;;;14.10;99.90;;;;;;5035162;28;20021;-85
2022/05/06 04:18:14;;;;;;;12.55;9.45;;;14.10;99.90;;;;;;5032278;28;20079;-85
2022/05/06 04:23:30;;;;;;;12.82;9.23;;;14.10;99.90;;;;;;5032673;28;20029;-86
2022/05/06 04:26:02;;;;;;;14.25;9.35;;;14.10;99.90;;;;;;5033209;28;20021;-86
2022/05/06 04:28:31;;;;;;;13.25;8.40;;;14.10;99.90;;;;;;5019762;28;20025;-86
2022/05/06 04:31:01;;;;;;;15.82;9.10;;;14.10;99.90;;;;;;5040771;28;20021;-85
2022/05/06 04:33:29;;;;;;;16.08;7.90;;;14.20;99.90;;;;;;5025243;28;20369;-86
2022/05/06 04:35:57;;;;;;;10.32;7.32;;;14.20;99.90;;;;;;5024928;28;20030;-86
2022/05/06 04:38:27;;;;;;;15.25;7.85;;;14.10;99.90;;;;;;5042068;28;20019;-86
2022/05/06 04:40:59;;;;;;;15.45;7.72;;;14.10;99.90;;;;;;5040521;28;20033;-87
2022/05/06 04:43:27;;;;;;;13.48;7.78;;;14.20;99.90;;;;;;5058851;28;20076;-85
2022/05/06 04:45:55;;;;;;;19.77;9.15;;;14.20;99.90;;;;;;5042330;28;20052;-86
2022/05/06 04:48:22;;;;;;;15.90;8.15;;;14.20;99.90;;;;;;5058866;28;20053;-86
2022/05/06 04:50:49;;;;;;;12.48;8.35;;;14.20;99.90;;;;;;5041082;28;20032;-86
2022/05/06 04:53:17;;;;;;;17.70;9.00;;;14.30;99.90;;;;;;5058543;28;20024;-85
2022/05/06 04:55:48;;;;;;;13.88;8.68;;;14.30;99.90;;;;;;5058641;28;20029;-85
2022/05/06 04:58:18;;;;;;;14.68;8.35;;;14.40;99.90;;;;;;5039710;28;20013;-86
2022/05/06 05:00:44;;;;;;;13.45;7.93;;;14.40;99.90;;;;;;5019298;28;20485;-85
2022/05/06 05:03:11;;;;;;;12.77;8.77;;;14.50;99.90;;;;;;5034322;28;20025;-86
2022/05/06 05:05:38;;;;;;;11.93;8.38;;;14.50;99.90;;;;;;5033573;28;20029;-86
2022/05/06 05:08:08;;;;;;;14.90;9.30;;;14.60;99.90;;;;;;5053384;28;20112;-85
2022/05/06 05:10:35;;;;;;;15.38;9.73;;;14.60;99.90;;;;;;5035858;28;20026;-86
2022/05/06 05:13:01;;;;;;;20.20;10.73;;;14.70;99.90;;;;;;5035392;28;20021;-85
2022/05/06 05:15:31;;;;;;;26.90;10.95;;;14.70;99.90;;;;;;5035402;28;20017;-85
2022/05/06 05:17:58;;;;;;;15.05;9.60;;;14.80;99.90;;;;;;5053651;28;20073;-86
2022/05/06 05:20:24;;;;;;;13.02;9.90;;;14.80;99.90;;;;;;5035844;28;20040;-85
2022/05/06 05:22:51;;;;;;;14.00;9.60;;;14.90;99.90;;;;;;5040152;28;20048;-84
2022/05/06 05:25:17;;;;;;;15.02;9.40;;;14.90;99.90;;;;;;5041936;28;20045;-85
2022/05/06 05:27:43;;;;;;;14.57;9.40;;;15.00;99.90;;;;;;5058935;28;20033;-85
2022/05/06 05:30:15;;;;;;;19.42;9.40;;;15.10;99.90;;;;;;5040606;28;20048;-87
2022/05/06 05:32:41;;;;;;;14.65;9.73;;;15.10;99.90;;;;;;5057793;28;20092;-86
2022/05/06 05:35:12;;;;;;;22.35;9.55;;;15.20;99.90;;;;;;5036967;28;20029;-86
2022/05/06 05:37:43;;;;;;;17.00;9.30;;;15.20;99.90;;;;;;5022218;28;20029;-86
2022/05/06 05:40:10;;;;;;;14.05;9.55;;;15.30;99.90;;;;;;5039420;28;20029;-86
2022/05/06 05:42:39;;;;;;;14.27;8.80;;;15.30;99.90;;;;;;5022857;28;20041;-86
2022/05/06 05:48:19;;;;;;;19.67;10.52;;;15.40;99.90;;;;;;5039473;28;20032;-84
2022/05/06 05:50:47;;;;;;;17.73;10.50;;;15.40;99.90;;;;;;5040183;28;20018;-82
2022/05/06 05:53:15;;;;;;;19.25;9.57;;;15.40;99.90;;;;;;5038353;28;20092;-86
2022/05/06 05:55:43;;;;;;;16.90;8.57;;;15.40;99.90;;;;;;5046305;28;20400;-87
2022/05/06 05:58:13;;;;;;;20.50;8.45;;;15.50;99.90;;;;;;5025452;28;20025;-86
2022/05/06 06:00:40;;;;;;;14.52;9.02;;;15.50;99.90;;;;;;5009833;28;20033;-88
2022/05/06 06:03:07;;;;;;;12.93;8.90;;;15.60;99.90;;;;;;5024333;28;20041;-86
2022/05/06 06:05:37;;;;;;;16.35;8.85;;;15.50;99.90;;;;;;5025604;28;20095;-86
2022/05/06 06:08:04;;;;;;;14.05;8.90;;;15.60;99.90;;;;;;5043908;28;20076;-86
2022/05/06 06:10:31;;;;;;;15.27;9.23;;;15.70;99.90;;;;;;5025817;28;20033;-87
2022/05/06 06:13:04;;;;;;;18.02;8.52;;;15.70;99.90;;;;;;5024379;28;20027;-87
2022/05/06 06:15:33;;;;;;;13.02;9.13;;;15.80;99.90;;;;;;5023761;28;20369;-87
2022/05/06 06:17:59;;;;;;;12.02;9.13;;;15.80;99.90;;;;;;5024391;28;20021;-86
2022/05/06 06:20:27;;;;;;;12.38;9.07;;;15.80;99.90;;;;;;5024989;28;20148;-88
2022/05/06 06:22:53;;;;;;;16.55;9.38;;;15.90;99.90;;;;;;5026635;28;20025;-86
2022/05/06 06:25:20;;;;;;;16.73;9.32;;;15.90;99.90;;;;;;5028380;28;20033;-88
2022/05/06 06:27:46;;;;;;;22.33;13.25;;;15.90;99.90;;;;;;5051096;28;20017;-87
2022/05/06 06:30:13;;;;;;;19.40;9.70;;;16.00;99.90;;;;;;5014343;28;20025;-87
2022/05/06 06:32:39;;;;;;;20.05;10.48;;;16.00;99.90;;;;;;5049998;28;20063;-87
2022/05/06 06:35:09;;;;;;;14.55;8.85;;;16.10;99.90;;;;;;5029808;28;20040;-83
2022/05/06 06:37:49;;;;;;;16.55;9.20;;;16.20;99.90;;;;;;5030873;28;20032;-86
2022/05/06 06:40:17;;;;;;;12.40;9.05;;;16.20;99.90;;;;;;5028124;28;20036;-85
2022/05/06 06:42:47;;;;;;;14.70;8.93;;;16.30;99.90;;;;;;5025685;28;20500;-84
2022/05/06 06:45:34;;;;;;;17.15;9.52;;;16.30;99.90;;;;;;4991817;28;20053;-85
2022/05/06 06:48:29;;;;;;;15.85;9.35;;;16.30;99.90;;;;;;5008859;28;20038;-84
2022/05/06 06:51:06;;;;;;;14.10;10.52;;;16.40;99.90;;;;;;5010050;28;20064;-85
2022/05/06 06:53:38;;;;;;;12.15;9.55;;;16.50;99.90;;;;;;5026655;28;20030;-84
2022/05/06 06:56:04;;;;;;;16.70;10.20;;;16.50;99.90;;;;;;5035673;28;20037;-83
2022/05/06 06:58:30;;;;;;;13.48;9.40;;;16.50;99.90;;;;;;5010675;28;20523;-84
2022/05/06 07:00:57;;;;;;;14.15;9.38;;;16.50;99.90;;;;;;5016415;28;20026;-80
2022/05/06 07:03:23;;;;;;;11.65;8.95;;;16.60;99.90;;;;;;5037817;28;20213;-85
2022/05/06 07:13:02;;;;;;;13.07;9.05;;;16.80;99.90;;;;;;5020768;28;20109;-83
2022/05/06 07:15:31;;;;;;;16.05;11.70;;;16.80;99.90;;;;;;5037806;28;20026;-84
2022/05/06 07:17:58;;;;;;;16.98;11.65;;;17.00;99.90;;;;;;5019962;28;20022;-84
2022/05/06 07:20:24;;;;;;;16.13;10.38;;;17.10;99.90;;;;;;5019846;28;20042;-81
2022/05/06 07:22:49;;;;;;;13.93;9.30;;;17.20;99.90;;;;;;5037306;28;20021;-82
2022/05/06 07:25:15;;;;;;;15.35;10.10;;;17.30;99.90;;;;;;5037449;28;20032;-82
2022/05/06 07:27:43;;;;;;;13.02;9.25;;;17.40;99.90;;;;;;5037261;28;20030;-80
2022/05/06 07:30:10;;;;;;;14.30;9.77;;;17.60;99.90;;;;;;5020164;28;20061;-81
2022/05/06 07:32:37;;;;;;;14.85;10.52;;;17.50;99.90;;;;;;5003527;28;20041;-82
2022/05/06 07:35:04;;;;;;;20.42;12.43;;;17.60;99.90;;;;;;5036650;28;20022;-81
2022/05/06 07:37:33;;;;;;;18.77;10.63;;;17.90;99.90;;;;;;5036920;28;20045;-83
2022/05/06 07:40:03;;;;;;;13.15;9.10;;;17.90;99.90;;;;;;5036435;28;20041;-82
2022/05/06 07:42:30;;;;;;;12.80;8.68;;;17.90;99.90;;;;;;5036484;28;20029;-81
2022/05/06 07:44:57;;;;;;;13.57;9.00;;;18.00;99.90;;;;;;5036494;28;20026;-82
2022/05/06 07:47:23;;;;;;;12.95;9.25;;;18.10;99.90;;;;;;5032679;28;20052;-85
2022/05/06 07:49:49;;;;;;;15.13;9.38;;;18.20;99.90;;;;;;5029101;28;20046;-85
2022/05/06 07:52:15;;;;;;;13.90;9.40;;;18.20;99.90;;;;;;5012852;28;20029;-84
2022/05/06 07:54:41;;;;;;;14.43;9.35;;;18.30;99.90;;;;;;5030729;28;20026;-86
2022/05/06 07:57:06;;;;;;;12.52;8.77;;;18.50;99.90;;;;;;5100176;23;20060;-85
2022/05/06 07:59:32;;;;;;;11.10;8.38;;;18.70;99.90;;;;;;5078113;28;20028;-87
2022/05/06 08:04:48;;;;;;;10.15;8.55;;;19.00;99.90;;;;;;5093922;28;20050;-85
2022/05/06 08:07:16;;;;;;;17.70;9.68;;;19.00;99.90;;;;;;5071212;28;20029;-88
2022/05/06 08:09:43;;;;;;;15.00;8.63;;;19.10;99.90;;;;;;5072554;28;20047;-85
2022/05/06 08:12:10;;;;;;;21.30;9.18;;;19.10;99.90;;;;;;5079355;28;20025;-83
2022/05/06 08:14:36;;;;;;;16.33;8.80;;;19.10;99.90;;;;;;5079300;28;20015;-85
2022/05/06 08:17:03;;;;;;;12.27;9.20;;;19.20;99.90;;;;;;5077834;28;20104;-87
2022/05/06 08:19:29;;;;;;;27.63;12.73;;;19.40;99.90;;;;;;5070215;28;20029;-83
2022/05/06 08:21:57;;;;;;;17.23;8.50;;;19.40;99.90;;;;;;5073409;28;20096;-88
2022/05/06 08:24:23;;;;;;;9.90;8.20;;;19.30;99.90;;;;;;5068043;28;20029;-85
2022/05/06 08:26:50;;;;;;;15.23;8.98;;;19.30;99.90;;;;;;5069518;28;20083;-86
2022/05/06 08:29:16;;;;;;;17.42;8.43;;;19.40;99.90;;;;;;5066463;28;20032;-87
2022/05/06 08:31:42;;;;;;;11.57;8.48;;;19.40;99.90;;;;;;5070350;28;20092;-86
2022/05/06 08:34:09;;;;;;;12.50;8.50;;;19.30;99.90;;;;;;5069411;28;20013;-85
2022/05/06 08:36:40;;;;;;;13.55;8.80;;;19.20;99.90;;;;;;5067077;28;20025;-86
2022/05/06 08:39:07;;;;;;;9.18;8.05;;;19.20;99.90;;;;;;5049118;28;20033;-88
2022/05/06 08:41:35;;;;;;;9.85;8.32;;;19.20;99.90;;;;;;5056519;28;20085;-86
2022/05/06 08:50:50;;;;;;;18.75;9.48;;;19.30;99.90;;;;;;5069080;28;20032;-88
2022/05/06 08:52:41;;;;;;;14.90;8.50;;;19.90;99.90;;;;;;5069815;28;20037;-86
2022/05/06 08:55:08;;;;;;;14.27;7.88;;;20.30;99.90;;;;;;5065964;28;20041;-88
2022/05/06 08:57:35;;;;;;;17.15;8.05;;;20.60;99.90;;;;;;5057045;28;20096;-85
2022/05/06 09:00:01;;;;;;;11.32;7.40;;;20.60;99.90;;;;;;5074315;28;20532;-86
2022/05/06 09:02:27;;;;;;;11.98;7.72;;;20.80;99.90;;;;;;5066260;28;20044;-85
2022/05/06 09:04:53;;;;;;;10.63;8.15;;;21.00;99.90;;;;;;5014396;28;20021;-88
2022/05/06 09:07:21;;;;;;;15.23;8.38;;;21.10;99.90;;;;;;5049007;28;20029;-87
2022/05/06 09:10:09;;;;;;;15.15;8.85;;;20.90;99.90;;;;;;5065165;28;20059;-87
2022/05/06 09:12:41;;;;;;;17.05;9.70;;;20.80;99.90;;;;;;5047431;28;20044;-88
2022/05/06 09:17:52;;;;;;;12.60;8.40;;;20.50;99.90;;;;;;5069416;28;20131;-85
2022/05/06 09:20:22;;;;;;;21.02;8.70;;;20.50;99.90;;;;;;5067143;28;20059;-87
2022/05/06 09:22:51;;;;;;;15.63;9.88;;;20.70;99.90;;;;;;5047238;28;20040;-87
2022/05/06 09:25:42;;;;;;;18.48;10.27;;;20.70;99.90;;;;;;5064675;28;20557;-87
2022/05/06 09:28:28;;;;;;;12.52;8.68;;;20.60;99.90;;;;;;5046533;28;20061;-86
2022/05/06 09:31:06;;;;;;;12.50;8.27;;;20.70;99.90;;;;;;5064087;28;20100;-88
2022/05/06 09:33:38;;;;;;;13.93;7.57;;;20.90;99.90;;;;;;5048274;28;20033;-87
2022/05/06 09:36:26;;;;;;;11.07;8.00;;;20.90;99.90;;;;;;5073647;28;20029;-86
2022/05/06 09:39:10;;;;;;;13.27;7.78;;;21.10;99.90;;;;;;5069711;28;20401;-87
2022/05/06 09:41:38;;;;;;;14.65;7.88;;;21.10;99.90;;;;;;5070268;28;20021;-84
2022/05/06 09:44:06;;;;;;;12.18;7.38;;;21.40;99.90;;;;;;5078346;28;20001;-86
2022/05/06 09:46:32;;;;;;;16.17;8.68;;;21.60;99.90;;;;;;5060845;28;20069;-84
2022/05/06 09:49:00;;;;;;;18.50;8.27;;;21.80;99.90;;;;;;5078008;28;20011;-84
2022/05/06 09:51:27;;;;;;;12.43;8.40;;;22.30;99.90;;;;;;5077338;28;20075;-86
2022/05/06 09:53:56;;;;;;;14.23;8.30;;;22.40;99.90;;;;;;5076924;28;20296;-88
2022/05/06 09:56:25;;;;;;;14.00;8.32;;;22.50;99.90;;;;;;5068747;28;20037;-88
2022/05/06 09:58:52;;;;;;;14.52;7.53;;;22.90;99.90;;;;;;5069792;28;20040;-86
2022/05/06 10:01:18;;;;;;;12.13;7.18;;;23.20;99.90;;;;;;5066139;28;20029;-88
2022/05/06 10:03:44;;;;;;;15.77;7.78;;;23.30;99.90;;;;;;5063308;28;20036;-87
2022/05/06 10:06:10;;;;;;;9.15;7.15;;;23.50;99.80;;;;;;5064230;28;20025;-88
2022/05/06 10:08:49;;;;;;;13.65;6.88;;;23.60;98.70;;;;;;5064670;28;20036;-87
2022/05/06 10:11:21;;;;;;;12.75;8.50;;;23.50;98.80;;;;;;5065052;28;20041;-87
2022/05/06 10:13:49;;;;;;;8.60;7.25;;;23.00;99.60;;;;;;5064487;28;20112;-88
2022/05/06 10:16:15;;;;;;;10.55;7.60;;;23.00;99.60;;;;;;5068942;28;20020;-85
2022/05/06 10:18:43;;;;;;;14.07;7.63;;;23.00;99.50;;;;;;5071931;28;20147;-87
2022/05/06 10:21:14;;;;;;;10.30;7.82;;;22.90;99.30;;;;;;5074445;28;20089;-83
2022/05/06 10:23:54;;;;;;;14.45;9.55;;;23.00;99.00;;;;;;5076783;28;20021;-84
2022/05/06 10:26:48;;;;;;;10.57;7.85;;;23.20;98.60;;;;;;5077582;28;20025;-84
2022/05/06 10:32:59;;;;;;;11.02;7.88;;;23.30;98.90;;;;;;5071748;28;20039;-88
2022/05/06 10:35:42;;;;;;;14.80;8.55;;;23.50;98.40;;;;;;5069276;28;20040;-88
2022/05/06 10:38:21;;;;;;;13.98;8.68;;;23.60;98.10;;;;;;5068203;28;20033;-88
2022/05/06 10:40:53;;;;;;;12.43;8.90;;;23.40;97.90;;;;;;5048503;28;20041;-89
2022/05/06 10:43:46;;;;;;;13.38;8.38;;;23.20;98.30;;;;;;5067651;28;20060;-87
2022/05/06 10:46:37;;;;;;;17.85;8.15;;;23.00;98.40;;;;;;5050302;28;20040;-90
2022/05/06 10:49:34;;;;;;;14.23;7.85;;;22.80;98.80;;;;;;5063864;28;20025;-88
2022/05/06 10:52:28;;;;;;;11.95;7.78;;;22.60;98.90;;;;;;5047411;28;20086;-87
2022/05/06 10:55:03;;;;;;;15.75;8.48;;;22.40;99.20;;;;;;5049042;28;20033;-87
2022/05/06 10:57:45;;;;;;;11.35;7.97;;;22.40;99.10;;;;;;5072627;28;20033;-86
2022/05/06 11:00:11;;;;;;;10.50;8.40;;;22.20;99.40;;;;;;5075934;28;20020;-84
2022/05/06 11:02:38;;;;;;;15.23;8.10;;;22.00;99.80;;;;;;5076838;28;20029;-85
2022/05/06 11:05:09;;;;;;;13.45;7.72;;;22.00;99.90;;;;;;5076723;28;20044;-84
2022/05/06 11:07:39;;;;;;;11.48;7.75;;;21.90;99.90;;;;;;5076233;28;20095;-85
2022/05/06 11:10:23;;;;;;;12.38;7.38;;;22.00;99.90;;;;;;5077167;28;20013;-84
2022/05/06 11:12:51;;;;;;;11.88;7.53;;;22.30;99.80;;;;;;5069059;28;20059;-88
2022/05/06 11:15:31;;;;;;;13.70;7.88;;;22.60;99.30;;;;;;5068562;28;20538;-86
2022/05/06 11:18:04;;;;;;;13.68;8.38;;;22.60;99.20;;;;;;5066098;28;20045;-87
2022/05/06 11:20:33;;;;;;;12.48;9.15;;;22.50;99.30;;;;;;5065934;28;20043;-91
2022/05/06 11:23:07;;;;;;;10.93;8.02;;;22.20;99.80;;;;;;5068685;28;20033;-87
2022/05/06 11:25:38;;;;;;;17.60;9.30;;;22.30;99.80;;;;;;5049422;28;20029;-87
2022/05/06 11:28:13;;;;;;;13.40;8.30;;;22.50;99.50;;;;;;5065743;28;20025;-90
2022/05/06 11:30:44;;;;;;;11.55;8.77;;;22.50;99.20;;;;;;5050536;28;20036;-90
2022/05/06 11:33:30;;;;;;;12.25;7.95;;;22.40;99.40;;;;;;5051138;28;20055;-87
2022/05/06 11:36:07;;;;;;;15.95;7.93;;;22.00;99.40;;;;;;5051876;28;20029;-89
2022/05/06 11:38:33;;;;;;;16.15;7.90;;;21.90;99.80;;;;;;5049678;28;20036;-88
2022/05/06 11:41:10;;;;;;;20.42;9.00;;;21.70;99.90;;;;;;5070453;28;20036;-86
2022/05/06 11:43:37;;;;;;;22.50;9.77;;;21.40;99.90;;;;;;5068422;28;20025;-88
2022/05/06 11:48:48;;;;;;;15.38;9.90;;;20.60;99.90;;;;;;5068197;28;20040;-89
2022/05/06 11:51:16;;;;;;;14.88;9.98;;;20.30;99.90;;;;;;5051668;28;20025;-89
2022/05/06 11:53:43;;;;;;;13.90;10.48;;;20.10;99.90;;;;;;5069158;28;20128;-88
2022/05/06 11:56:10;;;;;;;15.10;9.93;;;19.90;99.90;;;;;;5070208;28;20029;-88
2022/05/06 11:58:38;;;;;;;12.70;10.52;;;19.80;99.90;;;;;;5054116;28;20033;-88
2022/05/06 12:01:04;;;;;;;17.58;11.57;;;19.70;99.90;;;;;;5071692;28;20059;-87
2022/05/06 12:03:29;;;;;;;17.60;11.38;;;19.60;99.90;;;;;;5058352;28;20020;-86
2022/05/06 12:06:09;;;;;;;14.80;11.43;;;19.50;99.90;;;;;;5062220;28;20029;-86
2022/05/06 12:08:37;;;;;;;16.48;11.95;;;19.40;99.90;;;;;;5075591;28;20108;-85
2022/05/06 12:11:05;;;;;;;16.80;12.00;;;19.40;99.90;;;;;;5075390;28;20507;-86
2022/05/06 12:13:38;;;;;;;18.67;12.35;;;19.50;99.90;;;;;;5071860;28;20044;-88
2022/05/06 12:16:09;;;;;;;16.40;11.70;;;19.50;99.90;;;;;;5070286;28;20020;-85
2022/05/06 12:18:36;;;;;;;17.27;12.07;;;19.50;99.90;;;;;;5035140;28;20044;-89
2022/05/06 12:21:18;;;;;;;22.33;11.90;;;19.60;99.90;;;;;;5046360;28;20059;-86
2022/05/06 12:23:59;;;;;;;20.30;12.23;;;19.60;99.90;;;;;;5047934;28;20659;-89
2022/05/06 12:26:33;;;;;;;18.73;12.05;;;19.60;99.90;;;;;;5065378;28;20049;-88
2022/05/06 12:29:00;;;;;;;23.50;12.97;;;19.60;99.90;;;;;;5064340;28;20036;-87
2022/05/06 12:31:28;;;;;;;16.75;11.45;;;19.70;99.90;;;;;;5066018;28;20032;-87
2022/05/06 12:34:04;;;;;;;16.73;12.07;;;19.70;99.90;;;;;;5077616;28;20040;-86
2022/05/06 12:36:30;;;;;;;19.67;11.52;;;19.80;99.90;;;;;;5076501;28;20041;-88
2022/05/06 12:38:56;;;;;;;15.73;12.35;;;19.70;99.90;;;;;;5069981;28;20021;-88
2022/05/06 12:41:26;;;;;;;17.65;11.57;;;19.60;99.90;;;;;;5058920;28;20033;-89
2022/05/06 12:43:57;;;;;;;18.67;11.77;;;19.60;99.90;;;;;;5054734;28;20062;-87
2022/05/06 12:46:31;;;;;;;16.70;12.35;;;19.50;99.90;;;;;;5076216;28;20063;-86
2022/05/06 12:51:44;;;;;;;16.80;11.55;;;19.50;99.90;;;;;;5067302;28;20036;-86
2022/05/06 12:54:11;;;;;;;18.50;12.27;;;19.50;99.90;;;;;;5065615;28;20388;-87
2022/05/06 12:56:38;;;;;;;16.00;12.30;;;19.50;99.90;;;;;;5066230;28;20040;-86
2022/05/06 12:59:05;;;;;;;18.90;12.32;;;19.40;99.90;;;;;;5055752;28;20005;-85
2022/05/06 13:01:31;;;;;;;16.80;12.82;;;19.30;99.90;;;;;;5078574;28;20040;-83
2022/05/06 13:03:57;;;;;;;19.75;12.73;;;19.20;99.90;;;;;;5078154;28;20040;-84
2022/05/06 13:06:24;;;;;;;19.40;13.90;;;19.20;99.90;;;;;;5075760;28;20037;-86
2022/05/06 13:08:50;;;;;;;21.20;13.43;;;19.00;99.90;;;;;;5077592;28;20009;-85
2022/05/06 13:11:16;;;;;;;21.52;13.35;;;19.10;99.90;;;;;;5076914;28;20013;-85
2022/05/06 13:13:42;;;;;;;16.23;12.95;;;19.00;99.90;;;;;;5077220;28;20021;-87
2022/05/06 13:16:14;;;;;;;24.10;14.38;;;19.00;99.90;;;;;;5071714;28;20068;-86
2022/05/06 13:18:40;;;;;;;18.35;14.50;;;19.00;99.90;;;;;;5055848;28;20029;-85
2022/05/06 13:21:06;;;;;;;22.17;15.95;;;19.00;99.90;;;;;;5041835;28;20021;-87
2022/05/06 13:23:32;;;;;;;19.02;14.82;;;19.00;99.90;;;;;;5077169;28;20178;-85
2022/05/06 13:25:58;;;;;;;19.73;14.13;;;19.00;99.90;;;;;;5076198;28;20032;-87
2022/05/06 13:28:24;;;;;;;18.60;13.98;;;19.00;99.90;;;;;;5076951;28;20043;-85
2022/05/06 13:30:49;;;;;;;18.45;12.93;;;19.10;99.90;;;;;;5076748;28;20029;-85